createdAt,value
2018-08-07T00:00:38.194Z,24.00
2018-08-07T00:03:07.886Z,23.40
2018-08-07T00:05:36.673Z,22.80
2018-08-07T00:08:06.521Z,22.90
2018-08-07T00:10:35.313Z,22.70
2018-08-07T00:13:04.029Z,22.70
2018-08-07T00:15:32.828Z,22.70
2018-08-07T00:18:01.462Z,22.80
2018-08-07T00:20:30.240Z,23.20
2018-08-07T00:25:27.304Z,23.40
2018-08-07T00:27:55.993Z,23.20
2018-08-07T00:30:24.717Z,22.80
2018-08-07T00:32:53.509Z,22.40
2018-08-07T00:35:22.224Z,22.30
2018-08-07T00:37:51.026Z,22.50
2018-08-07T00:40:19.920Z,22.40
2018-08-07T00:42:48.946Z,22.30
2018-08-07T00:45:19.669Z,22.30
2018-08-07T00:47:49.359Z,22.20
2018-08-07T00:50:20.617Z,22.20
2018-08-07T00:52:50.277Z,22.30
2018-08-07T00:55:19.578Z,22.10
2018-08-07T00:57:48.939Z,22.00
2018-08-07T01:00:17.775Z,22.00
2018-08-07T01:02:46.556Z,21.90
2018-08-07T01:05:16.574Z,21.90
2018-08-07T01:07:45.470Z,21.60
2018-08-07T01:10:18.233Z,21.70
2018-08-07T01:12:47.412Z,21.60
2018-08-07T01:15:18.477Z,21.60
2018-08-07T01:17:47.653Z,21.60
2018-08-07T01:20:17.853Z,21.60
2018-08-07T01:22:46.734Z,21.60
2018-08-07T01:25:19.575Z,21.60
2018-08-07T01:27:48.444Z,21.60
2018-08-07T01:30:24.114Z,21.60
2018-08-07T01:32:53.453Z,21.70
2018-08-07T01:35:22.143Z,21.60
2018-08-07T01:37:50.897Z,21.60
2018-08-07T01:40:19.599Z,21.60
2018-08-07T01:42:48.483Z,21.50
2018-08-07T01:45:17.276Z,21.50
2018-08-07T01:47:46.042Z,21.50
2018-08-07T01:50:15.621Z,21.60
2018-08-07T01:52:44.499Z,21.50
2018-08-07T01:55:23.493Z,21.30
2018-08-07T01:57:52.351Z,21.40
2018-08-07T02:00:21.128Z,21.40
2018-08-07T02:02:51.214Z,21.40
2018-08-07T02:05:20.526Z,21.30
2018-08-07T02:07:53.176Z,21.40
2018-08-07T02:10:21.882Z,21.30
2018-08-07T02:12:50.641Z,21.20
2018-08-07T02:15:19.323Z,21.30
2018-08-07T02:17:48.175Z,21.20
2018-08-07T02:20:17.668Z,21.30
2018-08-07T02:22:46.877Z,21.30
2018-08-07T02:25:17.799Z,21.10
2018-08-07T02:27:46.963Z,21.10
2018-08-07T02:30:16.649Z,21.10
2018-08-07T02:32:45.458Z,21.00
2018-08-07T02:35:15.247Z,21.00
2018-08-07T02:37:45.016Z,21.00
2018-08-07T02:40:14.532Z,21.00
2018-08-07T02:42:44.501Z,21.00
2018-08-07T02:45:16.451Z,20.90
2018-08-07T02:47:45.662Z,20.90
2018-08-07T02:50:18.339Z,21.00
2018-08-07T02:52:47.186Z,21.00
2018-08-07T02:55:16.905Z,21.00
2018-08-07T02:57:48.019Z,21.00
2018-08-07T03:00:20.119Z,21.00
2018-08-07T03:02:49.147Z,21.00
2018-08-07T03:05:18.800Z,21.00
2018-08-07T03:07:47.652Z,21.10
2018-08-07T03:10:16.503Z,21.20
2018-08-07T03:12:45.189Z,21.20
2018-08-07T03:15:17.473Z,21.10
2018-08-07T03:17:47.056Z,21.10
2018-08-07T03:20:16.186Z,21.20
2018-08-07T03:22:44.906Z,21.20
2018-08-07T03:25:14.274Z,21.20
2018-08-07T03:27:44.294Z,21.20
2018-08-07T03:30:15.126Z,21.10
2018-08-07T03:32:44.120Z,21.20
2018-08-07T03:35:12.867Z,21.20
2018-08-07T03:37:42.007Z,21.10
2018-08-07T03:40:13.280Z,21.10
2018-08-07T03:42:42.034Z,21.20
2018-08-07T03:45:12.768Z,21.30
2018-08-07T03:47:41.738Z,21.20
2018-08-07T03:50:10.903Z,21.20
2018-08-07T03:52:39.526Z,21.20
2018-08-07T03:55:10.202Z,21.10
2018-08-07T03:57:39.383Z,21.20
2018-08-07T04:00:12.092Z,21.20
2018-08-07T04:02:40.800Z,21.10
2018-08-07T04:05:09.590Z,21.10
2018-08-07T04:07:38.698Z,21.10
2018-08-07T04:10:12.106Z,21.10
2018-08-07T04:12:41.012Z,21.10
2018-08-07T04:15:11.810Z,21.00
2018-08-07T04:17:41.766Z,21.10
2018-08-07T04:20:15.219Z,21.10
2018-08-07T04:22:43.975Z,21.00
2018-08-07T04:25:12.715Z,21.00
2018-08-07T04:27:41.471Z,21.00
2018-08-07T04:30:13.696Z,21.10
2018-08-07T04:32:42.818Z,21.10
2018-08-07T04:35:12.994Z,21.30
2018-08-07T04:37:41.807Z,21.30
2018-08-07T04:40:11.235Z,21.30
2018-08-07T04:42:40.601Z,21.30
2018-08-07T04:45:15.833Z,21.40
2018-08-07T04:47:45.393Z,21.30
2018-08-07T04:50:16.140Z,21.30
2018-08-07T04:52:46.862Z,21.30
2018-08-07T04:55:15.490Z,21.30
2018-08-07T04:57:44.644Z,21.30
2018-08-07T05:00:15.822Z,21.40
2018-08-07T05:02:45.447Z,21.50
2018-08-07T05:05:14.285Z,21.50
2018-08-07T05:07:43.135Z,21.60
2018-08-07T05:10:14.921Z,21.60
2018-08-07T05:12:45.244Z,21.60
2018-08-07T05:15:15.155Z,21.60
2018-08-07T05:20:13.646Z,21.70
2018-08-07T05:22:42.433Z,21.80
2018-08-07T05:25:11.935Z,21.80
2018-08-07T05:27:40.829Z,21.80
2018-08-07T05:30:12.004Z,21.90
2018-08-07T05:32:40.612Z,21.90
2018-08-07T05:35:10.390Z,21.90
2018-08-07T05:37:39.145Z,22.00
2018-08-07T05:40:09.219Z,22.00
2018-08-07T05:42:37.947Z,22.00
2018-08-07T05:45:08.433Z,22.00
2018-08-07T05:47:45.977Z,22.00
2018-08-07T05:50:17.244Z,22.10
2018-08-07T05:52:46.591Z,22.10
2018-08-07T05:55:15.433Z,22.10
2018-08-07T05:57:44.333Z,22.20
2018-08-07T06:00:31.590Z,22.20
2018-08-07T06:03:01.180Z,22.30
2018-08-07T06:05:41.167Z,22.20
2018-08-07T06:08:10.981Z,22.20
2018-08-07T06:10:39.837Z,22.20
2018-08-07T06:13:08.594Z,22.30
2018-08-07T06:15:37.414Z,22.20
2018-08-07T06:18:07.644Z,22.30
2018-08-07T06:20:36.423Z,22.20
2018-08-07T06:23:05.203Z,22.20
2018-08-07T06:25:33.973Z,22.20
2018-08-07T06:28:02.691Z,22.20
2018-08-07T06:30:31.427Z,22.20
2018-08-07T06:33:00.167Z,22.30
2018-08-07T06:35:28.936Z,22.40
2018-08-07T06:37:57.595Z,22.30
2018-08-07T06:40:26.786Z,22.40
2018-08-07T06:42:55.544Z,22.40
2018-08-07T06:45:24.226Z,22.40
2018-08-07T06:47:53.069Z,22.60
2018-08-07T06:50:21.797Z,22.70
2018-08-07T06:52:51.788Z,22.50
2018-08-07T06:55:20.496Z,22.40
2018-08-07T06:57:49.263Z,22.40
2018-08-07T07:00:22.626Z,22.40
2018-08-07T07:02:52.857Z,22.50
2018-08-07T07:05:21.842Z,22.50
2018-08-07T07:07:50.671Z,22.70
2018-08-07T07:10:19.342Z,22.70
2018-08-07T07:12:48.545Z,22.80
2018-08-07T07:15:18.040Z,23.00
2018-08-07T07:17:47.612Z,23.20
2018-08-07T07:20:17.659Z,23.30
2018-08-07T07:22:47.442Z,23.40
2018-08-07T07:25:16.436Z,23.50
2018-08-07T07:27:45.224Z,23.60
2018-08-07T07:30:16.053Z,23.80
2018-08-07T07:32:45.932Z,24.00
2018-08-07T07:35:15.236Z,24.10
2018-08-07T07:37:46.110Z,24.30
2018-08-07T07:40:15.903Z,24.50
2018-08-07T07:42:44.745Z,24.50
2018-08-07T07:45:15.862Z,24.60
2018-08-07T07:47:46.546Z,24.70
2018-08-07T07:50:17.451Z,24.80
2018-08-07T07:52:46.245Z,24.80
2018-08-07T07:55:15.970Z,24.80
2018-08-07T07:57:46.367Z,24.80
2018-08-07T08:00:19.423Z,24.90
2018-08-07T08:02:48.398Z,24.80
2018-08-07T08:05:23.032Z,24.70
2018-08-07T08:07:54.208Z,24.90
2018-08-07T08:10:23.127Z,24.90
2018-08-07T08:12:51.909Z,25.00
2018-08-07T08:15:21.681Z,24.90
2018-08-07T08:17:54.920Z,25.60
2018-08-07T08:20:25.838Z,25.90
2018-08-07T08:22:57.013Z,26.10
2018-08-07T08:25:25.865Z,26.10
2018-08-07T08:27:56.698Z,26.30
2018-08-07T08:30:25.426Z,26.30
2018-08-07T08:32:55.135Z,26.40
2018-08-07T08:35:26.119Z,26.30
2018-08-07T08:37:55.828Z,26.40
2018-08-07T08:40:25.430Z,26.40
2018-08-07T08:42:54.177Z,26.80
2018-08-07T08:45:25.500Z,27.30
2018-08-07T08:47:55.857Z,27.10
2018-08-07T08:50:24.715Z,27.00
2018-08-07T08:52:53.542Z,27.30
2018-08-07T08:55:22.358Z,27.30
2018-08-07T08:57:51.108Z,27.00
2018-08-07T09:00:23.536Z,26.00
2018-08-07T09:02:53.848Z,25.70
2018-08-07T09:05:22.640Z,25.60
2018-08-07T09:07:51.509Z,25.80
2018-08-07T09:10:25.052Z,25.90
2018-08-07T09:12:55.429Z,25.90
2018-08-07T09:15:24.290Z,25.90
2018-08-07T09:17:53.180Z,26.00
2018-08-07T09:20:26.750Z,25.90
2018-08-07T09:22:55.848Z,26.00
2018-08-07T09:25:27.206Z,26.60
2018-08-07T09:27:55.936Z,26.70
2018-08-07T09:30:28.794Z,26.80
2018-08-07T09:32:58.162Z,27.00
2018-08-07T09:35:27.051Z,27.00
2018-08-07T09:37:56.878Z,27.20
2018-08-07T09:40:25.766Z,26.90
2018-08-07T09:42:55.700Z,26.60
2018-08-07T09:45:27.678Z,26.70
2018-08-07T09:47:57.509Z,26.40
2018-08-07T09:50:26.343Z,26.30
2018-08-07T09:52:55.193Z,26.40
2018-08-07T09:55:23.945Z,26.20
2018-08-07T09:57:52.751Z,26.40
2018-08-07T10:00:28.910Z,26.10
2018-08-07T10:03:04.121Z,26.10
2018-08-07T10:05:34.180Z,25.70
2018-08-07T10:08:03.668Z,25.80
2018-08-07T10:10:32.596Z,25.30
2018-08-07T10:13:01.573Z,25.20
2018-08-07T10:15:30.421Z,25.00
2018-08-07T10:18:00.318Z,25.00
2018-08-07T10:20:29.035Z,25.30
2018-08-07T10:22:57.789Z,25.80
2018-08-07T10:25:26.700Z,25.70
2018-08-07T10:27:55.396Z,26.60
2018-08-07T10:30:25.934Z,26.10
2018-08-07T10:32:55.151Z,26.00
2018-08-07T10:35:28.717Z,26.30
2018-08-07T10:37:57.415Z,26.50
2018-08-07T10:40:27.441Z,26.40
2018-08-07T10:42:56.225Z,26.50
2018-08-07T10:45:26.016Z,26.40
2018-08-07T10:47:55.796Z,26.30
2018-08-07T10:50:28.742Z,26.20
2018-08-07T10:53:01.414Z,26.20
2018-08-07T10:55:30.342Z,26.20
2018-08-07T10:58:00.705Z,26.20
2018-08-07T11:00:32.077Z,26.60
2018-08-07T11:03:01.126Z,26.70
2018-08-07T11:05:30.270Z,26.70
2018-08-07T11:07:59.154Z,26.50
2018-08-07T11:10:28.324Z,26.40
2018-08-07T11:12:57.100Z,26.40
2018-08-07T11:15:29.720Z,26.40
2018-08-07T11:18:01.161Z,26.40
2018-08-07T11:20:30.141Z,26.40
2018-08-07T11:23:00.141Z,26.20
2018-08-07T11:25:29.786Z,26.50
2018-08-07T11:27:58.777Z,26.80
2018-08-07T11:30:29.358Z,26.70
2018-08-07T11:32:59.462Z,27.00
2018-08-07T11:35:29.665Z,26.90
2018-08-07T11:38:00.932Z,26.60
2018-08-07T11:40:30.836Z,26.60
2018-08-07T11:42:59.850Z,26.70
2018-08-07T11:45:30.391Z,26.60
2018-08-07T11:48:00.034Z,26.60
2018-08-07T11:50:31.017Z,26.70
2018-08-07T11:53:00.960Z,26.90
2018-08-07T11:55:29.894Z,27.00
2018-08-07T12:00:30.129Z,27.00
2018-08-07T12:02:58.992Z,26.80
2018-08-07T12:05:27.860Z,26.90
2018-08-07T12:07:56.741Z,26.90
2018-08-07T12:10:26.582Z,26.90
2018-08-07T12:12:56.422Z,26.80
2018-08-07T12:15:26.002Z,27.00
2018-08-07T12:17:56.313Z,27.20
2018-08-07T12:20:26.151Z,27.40
2018-08-07T12:22:54.946Z,27.60
2018-08-07T12:25:23.855Z,27.60
2018-08-07T12:27:52.825Z,27.90
2018-08-07T12:30:27.238Z,28.00
2018-08-07T12:32:57.342Z,27.90
2018-08-07T12:35:26.448Z,27.60
2018-08-07T12:37:55.239Z,27.70
2018-08-07T12:40:27.974Z,27.80
2018-08-07T12:43:01.532Z,27.70
2018-08-07T12:45:30.712Z,27.70
2018-08-07T12:48:00.430Z,27.40
2018-08-07T12:50:30.364Z,27.30
2018-08-07T12:52:59.088Z,27.10
2018-08-07T12:55:27.889Z,27.10
2018-08-07T12:57:56.705Z,27.20
2018-08-07T13:00:26.903Z,27.50
2018-08-07T13:02:55.958Z,27.60
2018-08-07T13:05:24.809Z,27.50
2018-08-07T13:07:53.619Z,27.70
2018-08-07T13:10:24.206Z,27.90
2018-08-07T13:12:53.968Z,27.90
2018-08-07T13:15:25.178Z,28.20
2018-08-07T13:17:54.094Z,28.00
2018-08-07T13:20:22.920Z,27.80
2018-08-07T13:22:51.758Z,27.60
2018-08-07T13:25:22.805Z,27.70
2018-08-07T13:27:52.658Z,27.50
2018-08-07T13:30:25.270Z,27.60
2018-08-07T13:32:54.278Z,27.30
2018-08-07T13:35:23.150Z,27.60
2018-08-07T13:37:53.572Z,27.70
2018-08-07T13:40:24.140Z,28.10
2018-08-07T13:42:53.033Z,28.30
2018-08-07T13:45:23.511Z,28.80
2018-08-07T13:47:52.418Z,29.00
2018-08-07T13:50:25.300Z,29.30
2018-08-07T13:52:56.060Z,29.40
2018-08-07T13:55:25.642Z,29.60
2018-08-07T13:57:54.533Z,29.70
2018-08-07T14:00:25.705Z,29.70
2018-08-07T14:02:55.019Z,29.80
2018-08-07T14:05:24.575Z,29.80
2018-08-07T14:07:54.595Z,30.40
2018-08-07T14:10:25.548Z,30.60
2018-08-07T14:12:54.434Z,30.40
2018-08-07T14:15:25.813Z,30.30
2018-08-07T14:17:54.611Z,29.80
2018-08-07T14:20:23.438Z,29.40
2018-08-07T14:22:52.285Z,29.30
2018-08-07T14:25:22.687Z,29.30
2018-08-07T14:27:51.457Z,29.70
2018-08-07T14:30:22.971Z,29.70
2018-08-07T14:32:51.989Z,29.70
2018-08-07T14:35:21.046Z,29.60
2018-08-07T14:37:50.288Z,29.90
2018-08-07T14:40:20.424Z,29.80
2018-08-07T14:42:50.310Z,29.60
2018-08-07T14:45:22.131Z,29.60
2018-08-07T14:47:51.882Z,29.70
2018-08-07T14:50:22.997Z,29.70
2018-08-07T14:52:51.853Z,30.00
2018-08-07T14:55:20.763Z,30.30
2018-08-07T14:57:49.596Z,30.30
2018-08-07T15:00:25.760Z,30.30
2018-08-07T15:05:34.137Z,30.30
2018-08-07T15:08:03.384Z,30.40
2018-08-07T15:10:32.164Z,30.40
2018-08-07T15:13:00.948Z,30.10
2018-08-07T15:15:31.608Z,29.70
2018-08-07T15:18:02.372Z,29.50
2018-08-07T15:20:32.058Z,29.40
2018-08-07T15:23:00.735Z,29.30
2018-08-07T15:25:29.509Z,29.60
2018-08-07T15:27:58.291Z,29.60
2018-08-07T15:30:27.862Z,29.60
2018-08-07T15:32:57.108Z,29.70
2018-08-07T15:35:27.488Z,29.50
2018-08-07T15:37:58.791Z,29.50
2018-08-07T15:40:27.637Z,29.90
2018-08-07T15:42:56.415Z,29.80
2018-08-07T15:45:26.720Z,30.00
2018-08-07T15:47:55.580Z,30.00
2018-08-07T15:50:24.459Z,30.00
2018-08-07T15:52:56.017Z,30.20
2018-08-07T15:55:27.040Z,30.10
2018-08-07T15:57:56.761Z,29.70
2018-08-07T16:00:29.011Z,29.60
2018-08-07T16:03:00.619Z,29.50
2018-08-07T16:05:29.501Z,29.50
2018-08-07T16:07:58.415Z,29.50
2018-08-07T16:10:27.076Z,29.40
2018-08-07T16:12:56.920Z,29.40
2018-08-07T16:15:29.610Z,29.50
2018-08-07T16:17:58.475Z,29.40
2018-08-07T16:20:28.182Z,29.60
2018-08-07T16:22:59.977Z,29.70
2018-08-07T16:25:28.674Z,29.90
2018-08-07T16:27:57.394Z,29.90
2018-08-07T16:30:28.510Z,29.90
2018-08-07T16:32:57.362Z,29.90
2018-08-07T16:35:27.223Z,29.70
2018-08-07T16:37:56.934Z,29.50
2018-08-07T16:40:25.890Z,29.30
2018-08-07T16:45:24.957Z,29.30
2018-08-07T16:47:53.727Z,29.30
2018-08-07T16:50:25.301Z,29.40
2018-08-07T16:52:54.938Z,29.40
2018-08-07T16:55:25.942Z,28.90
2018-08-07T16:57:54.714Z,29.00
2018-08-07T17:00:23.690Z,29.10
2018-08-07T17:02:52.391Z,28.90
2018-08-07T17:05:21.165Z,28.60
2018-08-07T17:07:50.237Z,28.20
2018-08-07T17:10:23.523Z,28.30
2018-08-07T17:12:52.353Z,28.20
2018-08-07T17:15:21.164Z,28.20
2018-08-07T17:17:50.016Z,28.40
2018-08-07T17:20:20.307Z,28.40
2018-08-07T17:22:49.387Z,28.60
2018-08-07T17:25:19.302Z,28.40
2018-08-07T17:27:48.810Z,28.40
2018-08-07T17:30:20.380Z,28.40
2018-08-07T17:32:49.160Z,28.20
2018-08-07T17:35:20.587Z,28.10
2018-08-07T17:37:50.554Z,28.00
2018-08-07T17:40:22.887Z,27.70
2018-08-07T17:42:51.623Z,27.60
2018-08-07T17:45:20.637Z,27.50
2018-08-07T17:47:50.393Z,27.60
2018-08-07T17:50:23.160Z,27.50
2018-08-07T17:52:54.385Z,27.60
2018-08-07T17:55:23.088Z,27.50
2018-08-07T17:57:52.952Z,27.70
2018-08-07T18:00:22.791Z,27.70
2018-08-07T18:02:52.525Z,27.70
2018-08-07T18:05:21.305Z,27.70
2018-08-07T18:07:51.629Z,27.70
2018-08-07T18:10:21.331Z,27.80
2018-08-07T18:12:51.112Z,27.80
2018-08-07T18:15:21.816Z,27.70
2018-08-07T18:17:50.889Z,27.50
2018-08-07T18:20:22.760Z,27.50
2018-08-07T18:22:52.470Z,27.40
2018-08-07T18:25:25.196Z,27.20
2018-08-07T18:27:53.939Z,27.20
2018-08-07T18:30:23.942Z,27.20
2018-08-07T18:32:52.776Z,27.20
2018-08-07T18:35:23.700Z,27.00
2018-08-07T18:37:52.456Z,27.00
2018-08-07T18:40:22.218Z,26.80
2018-08-07T18:42:50.905Z,26.60
2018-08-07T18:45:19.577Z,26.30
2018-08-07T18:47:48.313Z,26.10
2018-08-07T18:50:19.586Z,25.90
2018-08-07T18:52:48.406Z,25.90
2018-08-07T18:55:18.160Z,25.70
2018-08-07T18:57:52.196Z,25.70
2018-08-07T19:00:22.620Z,25.60
2018-08-07T19:02:52.366Z,25.40
2018-08-07T19:05:22.522Z,25.20
2018-08-07T19:07:51.277Z,25.00
2018-08-07T19:10:19.977Z,24.90
2018-08-07T19:12:50.079Z,25.00
2018-08-07T19:15:19.910Z,24.90
2018-08-07T19:17:49.569Z,24.80
2018-08-07T19:20:20.614Z,24.60
2018-08-07T19:22:49.454Z,24.60
2018-08-07T19:25:19.577Z,24.70
2018-08-07T19:27:48.266Z,24.80
2018-08-07T19:30:19.983Z,24.80
2018-08-07T19:32:48.722Z,24.70
2018-08-07T19:35:17.400Z,24.70
2018-08-07T19:37:46.138Z,24.60
2018-08-07T19:40:16.292Z,24.60
2018-08-07T19:42:45.714Z,24.70
2018-08-07T19:45:15.820Z,24.60
2018-08-07T19:47:45.074Z,24.60
2018-08-07T19:50:17.157Z,24.60
2018-08-07T19:52:45.937Z,24.50
2018-08-07T19:55:17.583Z,24.50
2018-08-07T19:57:46.285Z,24.50
2018-08-07T20:00:21.700Z,24.50
2018-08-07T20:02:50.844Z,24.40
2018-08-07T20:05:19.736Z,24.30
2018-08-07T20:07:48.400Z,24.30
2018-08-07T20:10:19.063Z,24.20
2018-08-07T20:12:52.553Z,24.20
2018-08-07T20:15:23.840Z,24.30
2018-08-07T20:17:53.242Z,24.20
2018-08-07T20:20:23.552Z,24.20
2018-08-07T20:22:52.456Z,24.20
2018-08-07T20:25:21.243Z,24.20
2018-08-07T20:27:49.902Z,24.20
2018-08-07T20:30:21.136Z,24.30
2018-08-07T20:32:53.369Z,24.30
2018-08-07T20:35:22.224Z,24.20
2018-08-07T20:37:51.016Z,24.20
2018-08-07T20:40:21.806Z,24.20
2018-08-07T20:42:51.801Z,24.10
2018-08-07T20:45:22.096Z,24.10
2018-08-07T20:47:50.865Z,24.00
2018-08-07T20:50:22.593Z,23.80
2018-08-07T20:52:51.979Z,23.70
2018-08-07T20:55:20.668Z,23.60
2018-08-07T20:57:49.430Z,23.70
2018-08-07T21:00:22.666Z,23.80
2018-08-07T21:02:51.570Z,23.70
2018-08-07T21:05:21.688Z,24.00
2018-08-07T21:07:50.419Z,23.90
2018-08-07T21:10:23.477Z,23.70
2018-08-07T21:12:52.293Z,23.60
2018-08-07T21:15:21.196Z,23.40
2018-08-07T21:17:50.179Z,23.30
2018-08-07T21:20:20.400Z,23.00
2018-08-07T21:22:49.340Z,22.90
2018-08-07T21:25:25.816Z,23.00
2018-08-07T21:27:56.940Z,23.10
2018-08-07T21:30:32.733Z,23.30
2018-08-07T21:33:01.373Z,23.10
2018-08-07T21:35:30.149Z,23.00
2018-08-07T21:37:58.901Z,22.90
2018-08-07T21:40:27.597Z,22.90
2018-08-07T21:42:56.944Z,22.80
2018-08-07T21:45:25.650Z,22.80
2018-08-07T21:47:54.456Z,22.60
2018-08-07T21:50:24.607Z,22.70
2018-08-07T21:52:53.313Z,22.80
2018-08-07T21:55:22.319Z,22.80
2018-08-07T21:57:51.031Z,22.80
2018-08-07T22:00:41.270Z,22.70
2018-08-07T22:03:10.511Z,22.60
2018-08-07T22:05:39.518Z,22.60
2018-08-07T22:08:09.153Z,22.50
2018-08-07T22:10:39.175Z,22.50
2018-08-07T22:13:08.960Z,22.40
2018-08-07T22:15:38.913Z,22.30
2018-08-07T22:18:09.270Z,22.30
2018-08-07T22:20:38.026Z,22.20
2018-08-07T22:23:06.983Z,22.10
2018-08-07T22:25:35.690Z,22.00
2018-08-07T22:28:04.467Z,21.70
2018-08-07T22:30:33.135Z,21.70
2018-08-07T22:33:01.843Z,21.80
2018-08-07T22:37:58.970Z,21.70
2018-08-07T22:40:27.919Z,21.60
2018-08-07T22:47:52.015Z,21.50
2018-08-07T22:50:20.762Z,21.40
2018-08-07T22:52:49.551Z,21.40
2018-08-07T22:55:19.523Z,21.40
2018-08-07T22:57:48.207Z,21.50
2018-08-07T23:00:18.725Z,21.60
2018-08-07T23:02:47.244Z,21.70
2018-08-07T23:05:17.082Z,21.40
2018-08-07T23:07:45.891Z,21.40
2018-08-07T23:10:18.921Z,21.40
2018-08-07T23:12:47.758Z,21.50
2018-08-07T23:15:18.668Z,21.60
2018-08-07T23:17:47.639Z,21.60
2018-08-07T23:20:17.721Z,21.50
2018-08-07T23:22:46.522Z,21.40
2018-08-07T23:25:19.152Z,21.50
2018-08-07T23:27:47.910Z,21.60
2018-08-07T23:30:18.255Z,21.60
2018-08-07T23:32:47.177Z,21.50
2018-08-07T23:35:17.358Z,21.60
2018-08-07T23:37:46.071Z,21.60
2018-08-07T23:40:15.393Z,21.60
2018-08-07T23:42:44.581Z,21.70
2018-08-07T23:45:16.093Z,21.80
2018-08-07T23:47:44.786Z,21.70
2018-08-07T23:50:14.165Z,21.50
2018-08-07T23:52:43.151Z,21.30
2018-08-07T23:55:11.928Z,21.30
2018-08-07T23:57:41.633Z,21.20
